Redwood Falls Municipal Airport
KRWF : now visible

Airfield :











YOU CAN JOIN US ON...

 
LOGIN :

Register | Disclaimer

   EN    FR    IT 

 









Legend :    VFR   Marginal VFR   IFR   Intensive IFR   Very Intensive IFR
Visi :
Ceiling :
>= 8 km
>= 3000ft
5 to 8 km
1000 to 3000 ft
1500m to 5 km
500 to 1000 ft
800 to 1500m
200 to 500 ft
< 800m
< 200 ft
Symbols :   Thunderstorms  Fog  Heavy snow  Heavy precipitations  Wind > 20 kt






- Airport Elevation : 1024 ft


KRWF - Redwood Falls Municipal

CURRENT METAR :
  • 120453Z AUTO 08008KT 10SM CLR M14/M18 A3025 RMK AO2 SLP270 T11441183

EXPIRED METARs :
  • 120353Z AUTO 09006KT 10SM CLR M14/M19 A3027 RMK AO2 SLP279 T11441189
  • 120253Z AUTO 11008KT 10SM CLR M14/M19 A3028 RMK AO2 SLP282 T11441189 58032

TAF KRWF
Valid from the 12 at 00:00 until the 13 at 00:00 UTC


112339Z 1200/1224 13006KT P6SM SCT050 OVC080
FM120900 11010KT 5SM -SN BR SCT015 OVC025
PROB30 1210/1214 2SM -SN BR OVC015
FM121500 02007KT P6SM OVC012
FM121800 33006KT P6SM OVC015



MET'MAP, your aeronautical weather chart ! - Copyright ORBIFLY December 2007 - Disclaimer

ORBIFLY MET'MAP TEAM :

Programming & Development : Alexandra Zaïnal
Concept & original design : Baudouin d'Aumeries
Assistance for programming : Marc-Olivier Méhu
Technical & hardware support : Manuel Goepfert

Contact : metmap@orbifly.com




SOURCES & CREDITS :

   NOAA       Earth
Advisory